Time;durP1;ratioP1;P1;durP2;ratioP2;P2;SDS_P1;SDS_P2;PMS_P1;PMS_P2;Temp;Humidity;BMP_temperature;BMP_pressure;BME280_temperature;BME280_humidity;BME280_pressure;Samples;Min_cycle;Max_cycle;Signal;HPM_P1;HPM_P2
2022/11/22 00:02:06;;;;;;;;;;;;;;;8.98;53.48;93506.84;5012647;28;20017;-72
2022/11/22 00:04:32;;;;;;;;;;;;;;;9.00;53.20;93509.16;5031297;28;20013;-71
2022/11/22 00:06:57;;;;;;;;;;;;;;;9.06;53.39;93515.81;5042719;28;20017;-72
2022/11/22 00:09:22;;;;;;;;;;;;;;;9.09;52.75;93504.53;5050210;28;20120;-72
2022/11/22 00:11:47;;;;;;;;;;;;;;;9.11;52.56;93502.31;5050556;28;20492;-73
2022/11/22 00:14:12;;;;;;;;;;;;;;;9.15;52.61;93500.53;5049668;28;20071;-72
2022/11/22 00:16:37;;;;;;;;;;;;;;;9.05;52.70;93495.69;5048264;28;20025;-73
2022/11/22 00:19:03;;;;;;;;;;;;;;;8.20;53.84;93493.78;5049866;28;20013;-71
2022/11/22 00:21:28;;;;;;;;;;;;;;;8.38;53.65;93483.78;5048643;28;20009;-72
2022/11/22 00:23:55;;;;;;;;;;;;;;;8.33;53.97;93484.72;5049328;28;20014;-73
2022/11/22 00:26:20;;;;;;;;;;;;;;;8.18;54.32;93493.31;5031853;28;20063;-71
2022/11/22 00:28:45;;;;;;;;;;;;;;;8.13;54.69;93502.22;5049834;28;20199;-71
2022/11/22 00:31:10;;;;;;;;;;;;;;;8.41;54.77;93501.66;5052897;28;20010;-72
2022/11/22 00:33:35;;;;;;;;;;;;;;;8.61;54.35;93503.44;5051448;28;20013;-71
2022/11/22 00:36:01;;;;;;;;;;;;;;;8.72;54.34;93504.56;5039655;28;20018;-72
2022/11/22 00:38:26;;;;;;;;;;;;;;;8.82;54.09;93506.75;5054011;28;20020;-72
2022/11/22 00:40:51;;;;;;;;;;;;;;;8.68;54.11;93506.31;5053682;28;20473;-72
2022/11/22 00:43:16;;;;;;;;;;;;;;;8.76;54.08;93516.03;5054032;28;20009;-72
2022/11/22 00:45:42;;;;;;;;;;;;;;;8.66;54.22;93523.66;5033708;28;20503;-72
2022/11/22 00:48:07;;;;;;;;;;;;;;;8.24;54.81;93532.53;5033908;28;20532;-72
2022/11/22 00:50:32;;;;;;;;;;;;;;;7.56;57.03;93539.97;5033626;28;20096;-73
2022/11/22 00:52:57;;;;;;;;;;;;;;;7.74;55.82;93499.06;5033648;28;20040;-71
2022/11/22 00:55:22;;;;;;;;;;;;;;;8.00;56.17;93533.22;5044244;28;20021;-72
2022/11/22 00:57:48;;;;;;;;;;;;;;;7.97;56.06;93535.75;5050587;28;20059;-71
2022/11/22 01:00:13;;;;;;;;;;;;;;;8.09;56.16;93543.75;5053391;28;20006;-72
2022/11/22 01:02:38;;;;;;;;;;;;;;;8.31;55.73;93540.69;5053077;28;20549;-71
2022/11/22 01:05:03;;;;;;;;;;;;;;;7.60;57.51;93538.25;5051670;28;20104;-72
2022/11/22 01:07:29;;;;;;;;;;;;;;;7.46;58.25;93538.50;5053411;28;20010;-72
2022/11/22 01:09:54;;;;;;;;;;;;;;;8.16;56.40;93536.03;5053197;28;20005;-71
2022/11/22 01:12:19;;;;;;;;;;;;;;;8.19;56.72;93534.56;5053627;28;20099;-72
2022/11/22 01:14:44;;;;;;;;;;;;;;;7.56;58.63;93530.16;5052244;28;20014;-71
2022/11/22 01:17:10;;;;;;;;;;;;;;;7.95;57.31;93527.34;5052699;28;20014;-72
2022/11/22 01:19:35;;;;;;;;;;;;;;;7.92;57.93;93530.66;5053212;28;20005;-71
2022/11/22 01:22:00;;;;;;;;;;;;;;;7.86;58.64;93530.06;5052229;28;20049;-71
2022/11/22 01:24:25;;;;;;;;;;;;;;;7.42;60.10;93523.59;5052989;28;20097;-72
2022/11/22 01:26:50;;;;;;;;;;;;;;;7.66;59.44;93523.72;5052523;28;20006;-72
2022/11/22 01:29:15;;;;;;;;;;;;;;;7.80;58.91;93513.63;5052976;28;20017;-72
2022/11/22 01:31:41;;;;;;;;;;;;;;;8.19;58.21;93516.84;5052764;28;20010;-72
2022/11/22 01:34:06;;;;;;;;;;;;;;;8.82;57.17;93509.41;5034415;28;20502;-72
2022/11/22 01:36:31;;;;;;;;;;;;;;;8.82;56.63;93512.06;5052545;28;20429;-74
2022/11/22 01:38:56;;;;;;;;;;;;;;;8.72;57.50;93509.84;5052526;28;20044;-72
2022/11/22 01:41:22;;;;;;;;;;;;;;;8.96;56.99;93503.78;5052035;28;20009;-74
2022/11/22 01:43:47;;;;;;;;;;;;;;;8.57;58.02;93513.16;5036280;28;20021;-71
2022/11/22 01:46:33;;;;;;;;;;;;;;;8.75;58.62;93501.25;5032340;28;20013;-71
2022/11/22 01:49:02;;;;;;;;;;;;;;;9.30;57.09;93494.53;5032496;28;20013;-72
2022/11/22 01:51:28;;;;;;;;;;;;;;;9.38;56.67;93488.34;5032557;28;20002;-73
2022/11/22 01:53:58;;;;;;;;;;;;;;;7.75;61.92;93497.19;5048203;28;20045;-72
2022/11/22 01:56:24;;;;;;;;;;;;;;;8.52;60.72;93492.19;5051939;28;20014;-73
2022/11/22 01:58:54;;;;;;;;;;;;;;;8.53;60.24;93491.06;5052310;28;20006;-72
2022/11/22 02:01:19;;;;;;;;;;;;;;;8.06;61.62;93492.19;5052242;28;20010;-72
2022/11/22 02:03:46;;;;;;;;;;;;;;;8.83;60.03;93496.94;5051158;28;20059;-72
2022/11/22 02:06:11;;;;;;;;;;;;;;;8.66;60.82;93505.13;5051970;28;20037;-72
2022/11/22 02:08:40;;;;;;;;;;;;;;;9.01;59.91;93498.25;5052314;28;20037;-72
2022/11/22 02:11:07;;;;;;;;;;;;;;;9.44;58.83;93496.81;5051834;28;20109;-72
2022/11/22 02:13:34;;;;;;;;;;;;;;;9.57;58.79;93494.91;5050952;28;20020;-72
2022/11/22 02:16:00;;;;;;;;;;;;;;;9.90;57.85;93495.44;5051638;28;20071;-72
2022/11/22 02:18:25;;;;;;;;;;;;;;;10.00;57.45;93502.16;5051986;28;20492;-73
2022/11/22 02:20:52;;;;;;;;;;;;;;;9.56;58.82;93503.97;5046236;28;20474;-73
2022/11/22 02:23:40;;;;;;;;;;;;;;;10.14;58.15;93507.06;5031912;28;20067;-73
2022/11/22 02:26:06;;;;;;;;;;;;;;;10.50;57.14;93513.31;5023325;28;20010;-72
2022/11/22 02:28:33;;;;;;;;;;;;;;;10.68;56.79;93509.94;5031953;28;20006;-72
2022/11/22 02:30:59;;;;;;;;;;;;;;;10.74;56.32;93518.44;5051459;28;20014;-73
2022/11/22 02:33:24;;;;;;;;;;;;;;;10.87;56.84;93503.19;5033513;28;20017;-73
2022/11/22 02:35:49;;;;;;;;;;;;;;;10.97;56.57;93510.63;5051520;28;20013;-73
2022/11/22 02:38:16;;;;;;;;;;;;;;;11.08;56.45;93510.88;5051521;28;20017;-72
2022/11/22 02:40:47;;;;;;;;;;;;;;;11.14;56.30;93510.25;5016295;28;20024;-73
2022/11/22 02:43:15;;;;;;;;;;;;;;;11.15;55.90;93505.69;5031598;28;20018;-72
2022/11/22 02:45:40;;;;;;;;;;;;;;;11.22;56.32;93507.75;5031212;28;20059;-72
2022/11/22 02:48:07;;;;;;;;;;;;;;;11.29;55.71;93502.56;5031414;28;20006;-72
2022/11/22 02:50:32;;;;;;;;;;;;;;;11.39;55.27;93507.34;5013703;28;20014;-71
2022/11/22 02:52:58;;;;;;;;;;;;;;;11.41;55.56;93508.56;5049006;28;20021;-73
2022/11/22 02:55:23;;;;;;;;;;;;;;;11.33;55.55;93509.53;5032384;28;20110;-73
2022/11/22 02:57:48;;;;;;;;;;;;;;;10.92;56.61;93522.31;5046878;28;20020;-72
2022/11/22 03:00:14;;;;;;;;;;;;;;;10.91;57.34;93517.34;5031208;28;20005;-73
2022/11/22 03:02:39;;;;;;;;;;;;;;;10.47;57.57;93516.66;5031205;28;20348;-72
2022/11/22 03:05:04;;;;;;;;;;;;;;;10.86;57.21;93522.91;5013043;28;20014;-73
2022/11/22 03:07:29;;;;;;;;;;;;;;;10.81;57.44;93518.63;5045561;28;20010;-72
2022/11/22 03:09:55;;;;;;;;;;;;;;;10.64;57.18;93516.28;5030955;28;20009;-72
2022/11/22 03:12:20;;;;;;;;;;;;;;;10.62;57.73;93513.22;5030912;28;20414;-73
2022/11/22 03:14:45;;;;;;;;;;;;;;;10.54;57.99;93504.28;5030617;28;20017;-72
2022/11/22 03:17:10;;;;;;;;;;;;;;;10.59;58.29;93511.22;5030596;28;20010;-72
2022/11/22 03:19:35;;;;;;;;;;;;;;;10.37;58.62;93510.72;5013106;28;20044;-72
2022/11/22 03:22:01;;;;;;;;;;;;;;;10.25;58.77;93516.13;5013160;28;20370;-73
2022/11/22 03:24:26;;;;;;;;;;;;;;;10.34;58.69;93513.31;5030730;28;20072;-72
2022/11/22 03:26:51;;;;;;;;;;;;;;;10.63;57.55;93522.72;5030271;28;20006;-72
2022/11/22 03:29:16;;;;;;;;;;;;;;;10.19;59.43;93528.06;5029714;28;20136;-73
2022/11/22 03:31:42;;;;;;;;;;;;;;;10.26;58.96;93536.25;5012234;28;20057;-73
2022/11/22 03:34:07;;;;;;;;;;;;;;;10.23;60.26;93546.75;5030625;28;20025;-73
2022/11/22 03:36:33;;;;;;;;;;;;;;;10.09;59.55;93544.50;5038762;28;20071;-72
2022/11/22 03:38:58;;;;;;;;;;;;;;;10.03;60.90;93541.31;5031854;28;20021;-73
2022/11/22 03:41:23;;;;;;;;;;;;;;;9.85;61.55;93535.50;5050223;28;20012;-73
2022/11/22 03:43:48;;;;;;;;;;;;;;;10.08;60.44;93545.59;5036412;28;20014;-73
2022/11/22 03:46:14;;;;;;;;;;;;;;;10.21;61.12;93549.75;5029945;28;20006;-72
2022/11/22 03:48:40;;;;;;;;;;;;;;;10.44;60.77;93551.88;5030429;28;20477;-73
2022/11/22 03:51:05;;;;;;;;;;;;;;;10.44;60.55;93546.56;5030217;28;20145;-72
2022/11/22 03:53:31;;;;;;;;;;;;;;;10.14;61.67;93549.56;5040707;28;20013;-73
2022/11/22 03:55:56;;;;;;;;;;;;;;;10.29;61.60;93556.84;5049713;28;20010;-73
2022/11/22 03:58:21;;;;;;;;;;;;;;;10.56;61.25;93557.91;5050140;28;20005;-72
2022/11/22 04:00:47;;;;;;;;;;;;;;;10.53;61.00;93561.22;5049949;28;20103;-73
2022/11/22 04:03:12;;;;;;;;;;;;;;;10.49;61.29;93564.91;5041528;28;20010;-72
2022/11/22 04:05:37;;;;;;;;;;;;;;;9.49;64.47;93559.53;5044837;28;20470;-72
2022/11/22 04:08:02;;;;;;;;;;;;;;;8.91;66.83;93561.56;5029884;28;20014;-73
2022/11/22 04:10:27;;;;;;;;;;;;;;;9.27;67.65;93564.19;5030023;28;20006;-73
2022/11/22 04:12:59;;;;;;;;;;;;;;;9.62;66.81;93564.47;5029989;28;20014;-72
2022/11/22 04:15:24;;;;;;;;;;;;;;;9.84;67.19;93560.53;5029455;28;20528;-72
2022/11/22 04:17:50;;;;;;;;;;;;;;;10.13;66.82;93558.63;5029952;28;20006;-72
2022/11/22 04:23:09;;;;;;;;;;;;;;;10.38;66.51;93557.44;5050068;28;20059;-73
2022/11/22 04:25:36;;;;;;;;;;;;;;;10.43;65.90;93553.00;5049400;28;20104;-73
2022/11/22 04:28:02;;;;;;;;;;;;;;;10.60;66.45;93561.44;5032075;28;20010;-73
2022/11/22 04:33:12;;;;;;;;;;;;;;;10.77;66.11;93560.31;5046408;28;20040;-72
2022/11/22 04:35:37;;;;;;;;;;;;;;;10.81;65.59;93555.09;5031262;28;20017;-72
2022/11/22 04:38:03;;;;;;;;;;;;;;;10.79;65.46;93566.06;5031910;28;20020;-74
2022/11/22 04:40:28;;;;;;;;;;;;;;;10.79;65.29;93567.94;5031834;28;20009;-73
2022/11/22 04:45:37;;;;;;;;;;;;;;;10.81;65.10;93555.09;5049379;28;20012;-73
2022/11/22 04:48:02;;;;;;;;;;;;;;;10.75;64.68;93567.88;5049631;28;20013;-73
2022/11/22 04:53:13;;;;;;;;;;;;;;;10.88;64.65;93565.88;5030043;28;20017;-73
2022/11/22 04:55:39;;;;;;;;;;;;;;;10.91;64.90;93563.31;5028087;28;20104;-73
2022/11/22 04:58:04;;;;;;;;;;;;;;;10.88;64.15;93574.63;5029648;28;20111;-72
2022/11/22 05:00:30;;;;;;;;;;;;;;;10.90;64.68;93569.75;5029607;28;20009;-73
2022/11/22 05:02:55;;;;;;;;;;;;;;;10.93;64.53;93561.09;5045308;28;20061;-73
2022/11/22 05:05:20;;;;;;;;;;;;;;;10.89;64.25;93564.78;5048955;28;20096;-74
2022/11/22 05:07:46;;;;;;;;;;;;;;;10.97;64.36;93558.50;5049483;28;20104;-73
2022/11/22 05:10:11;;;;;;;;;;;;;;;11.01;63.53;93567.34;5049390;28;20010;-73
2022/11/22 05:12:36;;;;;;;;;;;;;;;10.58;63.77;93568.97;5031110;28;20347;-73
2022/11/22 05:15:01;;;;;;;;;;;;;;;10.52;64.43;93538.44;5048747;28;20013;-73
2022/11/22 05:17:26;;;;;;;;;;;;;;;10.78;63.89;93577.03;5050831;28;20017;-73
2022/11/22 05:19:52;;;;;;;;;;;;;;;10.59;63.58;93575.03;5053035;28;20517;-74
2022/11/22 05:23:52;;;;;;;;;;;;;;;10.39;64.57;93582.16;5034481;28;20010;-73
2022/11/22 05:25:02;;;;;;;;;;;;;;;10.50;64.41;93579.78;5052173;28;20009;-73
2022/11/22 05:27:27;;;;;;;;;;;;;;;10.66;65.20;93584.00;5053043;28;20009;-73
2022/11/22 05:29:52;;;;;;;;;;;;;;;10.78;64.73;93587.69;5034915;28;20528;-73
2022/11/22 05:32:18;;;;;;;;;;;;;;;10.31;65.11;93585.72;5051580;28;20014;-73
2022/11/22 05:34:43;;;;;;;;;;;;;;;10.32;65.80;93585.38;5034748;28;20057;-72
2022/11/22 05:37:08;;;;;;;;;;;;;;;10.38;65.24;93594.66;5052327;28;20485;-71
2022/11/22 05:39:33;;;;;;;;;;;;;;;10.63;65.61;93594.53;5034691;28;20009;-71
2022/11/22 05:41:58;;;;;;;;;;;;;;;10.55;65.44;93592.81;5051758;28;20044;-72
2022/11/22 05:44:24;;;;;;;;;;;;;;;9.94;66.36;93593.81;5034739;28;20059;-71
2022/11/22 05:46:49;;;;;;;;;;;;;;;9.84;66.79;93592.41;5034346;28;20053;-71
2022/11/22 05:49:14;;;;;;;;;;;;;;;10.35;67.13;93587.38;5052242;28;20458;-71
2022/11/22 05:51:39;;;;;;;;;;;;;;;10.49;66.30;93589.59;5033944;28;20013;-71
2022/11/22 05:54:04;;;;;;;;;;;;;;;10.53;66.41;93592.38;5052197;28;20013;-71
2022/11/22 05:56:30;;;;;;;;;;;;;;;10.34;65.88;93582.41;5052087;28;20053;-72
2022/11/22 05:58:55;;;;;;;;;;;;;;;10.45;65.75;93590.66;5051996;28;20006;-71
2022/11/22 06:01:21;;;;;;;;;;;;;;;10.47;65.19;93588.41;5051643;28;20078;-70
2022/11/22 06:03:47;;;;;;;;;;;;;;;10.54;65.42;93589.34;5052284;28;20013;-72
2022/11/22 06:06:13;;;;;;;;;;;;;;;10.44;65.59;93595.19;5034128;28;20010;-71
2022/11/22 06:08:43;;;;;;;;;;;;;;;10.68;66.04;93592.38;5052183;28;20005;-71
2022/11/22 06:11:16;;;;;;;;;;;;;;;10.68;65.09;93596.94;5051321;28;20014;-71
2022/11/22 06:13:45;;;;;;;;;;;;;;;10.63;64.95;93599.84;5051875;28;20005;-71
2022/11/22 06:16:10;;;;;;;;;;;;;;;10.64;65.56;93596.06;5051674;28;20021;-72
2022/11/22 06:18:36;;;;;;;;;;;;;;;10.45;64.92;93588.75;5051800;28;20006;-72
2022/11/22 06:21:03;;;;;;;;;;;;;;;10.54;65.61;93591.25;5050739;28;20658;-71
2022/11/22 06:23:29;;;;;;;;;;;;;;;10.22;66.48;93585.06;5051100;28;20013;-72
2022/11/22 06:25:58;;;;;;;;;;;;;;;10.15;66.48;93589.09;5051061;28;20001;-71
2022/11/22 06:28:23;;;;;;;;;;;;;;;10.53;66.93;93589.72;5051588;28;20097;-71
2022/11/22 06:30:48;;;;;;;;;;;;;;;10.66;66.89;93594.63;5033472;28;20101;-71
2022/11/22 06:33:13;;;;;;;;;;;;;;;10.40;66.55;93596.97;5051586;28;20009;-71
2022/11/22 06:35:38;;;;;;;;;;;;;;;10.70;66.30;93602.69;5033395;28;20021;-71
2022/11/22 06:38:04;;;;;;;;;;;;;;;10.53;65.60;93603.78;5051476;28;20095;-71
2022/11/22 06:40:29;;;;;;;;;;;;;;;10.67;65.89;93616.66;5050470;28;20012;-71
2022/11/22 06:42:54;;;;;;;;;;;;;;;9.90;66.31;93619.50;5051307;28;20006;-71
2022/11/22 06:45:19;;;;;;;;;;;;;;;10.03;67.87;93625.53;5051225;28;20006;-72
2022/11/22 06:47:45;;;;;;;;;;;;;;;9.79;67.61;93632.47;5051050;28;20108;-72
2022/11/22 06:50:10;;;;;;;;;;;;;;;9.75;67.93;93628.16;5032790;28;20017;-71
2022/11/22 06:52:35;;;;;;;;;;;;;;;9.61;69.08;93631.16;5051338;28;20466;-72
2022/11/22 06:55:00;;;;;;;;;;;;;;;9.28;70.09;93634.72;5050759;28;20052;-72
2022/11/22 06:57:26;;;;;;;;;;;;;;;9.56;68.82;93649.97;5051051;28;20484;-71
2022/11/22 06:59:51;;;;;;;;;;;;;;;10.12;68.72;93644.78;5050109;28;20525;-72
2022/11/22 07:02:16;;;;;;;;;;;;;;;9.98;68.33;93645.16;5033068;28;20010;-72
2022/11/22 07:04:41;;;;;;;;;;;;;;;9.87;67.32;93652.03;5033149;28;20017;-73
2022/11/22 07:07:07;;;;;;;;;;;;;;;9.44;68.78;93656.06;5032593;28;20013;-72
2022/11/22 07:09:32;;;;;;;;;;;;;;;9.79;68.46;93669.66;5042322;28;20644;-72
2022/11/22 07:11:58;;;;;;;;;;;;;;;9.49;69.22;93669.09;5051113;28;20010;-72
2022/11/22 07:14:23;;;;;;;;;;;;;;;9.10;70.89;93675.81;5033140;28;20037;-72
2022/11/22 07:16:48;;;;;;;;;;;;;;;8.83;70.83;93672.69;5050092;28;20421;-73
2022/11/22 07:19:13;;;;;;;;;;;;;;;9.16;70.95;93669.19;5049751;28;20071;-72
2022/11/22 07:21:39;;;;;;;;;;;;;;;8.95;70.54;93684.41;5050867;28;20401;-71
2022/11/22 07:24:05;;;;;;;;;;;;;;;9.05;71.11;93678.69;5050890;28;20039;-70
2022/11/22 07:26:30;;;;;;;;;;;;;;;8.84;72.28;93686.72;5050549;28;20006;-72
2022/11/22 07:28:55;;;;;;;;;;;;;;;8.84;71.53;93687.47;5050084;28;20013;-71
2022/11/22 07:31:21;;;;;;;;;;;;;;;8.54;73.04;93689.47;5051224;28;20010;-68
2022/11/22 07:33:46;;;;;;;;;;;;;;;8.94;71.58;93690.81;5051013;28;20020;-73
2022/11/22 07:36:12;;;;;;;;;;;;;;;8.81;72.37;93688.16;5050094;28;20010;-67
2022/11/22 07:38:38;;;;;;;;;;;;;;;9.09;70.93;93700.81;5049171;28;20024;-68
2022/11/22 07:41:04;;;;;;;;;;;;;;;9.54;69.77;93702.63;5049608;28;20006;-66
2022/11/22 07:43:30;;;;;;;;;;;;;;;9.28;69.91;93698.41;5036193;28;20010;-68
2022/11/22 07:46:03;;;;;;;;;;;;;;;9.44;68.80;93708.38;5029937;28;20013;-68
2022/11/22 07:48:28;;;;;;;;;;;;;;;9.82;69.25;93700.81;5030141;28;20006;-67
2022/11/22 07:50:53;;;;;;;;;;;;;;;9.64;68.88;93710.16;5030014;28;20006;-70
2022/11/22 07:53:18;;;;;;;;;;;;;;;10.05;67.50;93719.75;5030292;28;20010;-72
2022/11/22 07:55:44;;;;;;;;;;;;;;;9.63;69.75;93714.69;5029461;28;20010;-71
2022/11/22 07:58:09;;;;;;;;;;;;;;;8.86;71.13;93719.00;5030490;28;20483;-71
2022/11/22 08:00:34;;;;;;;;;;;;;;;8.95;70.70;93730.28;5030327;28;20017;-71
2022/11/22 08:02:59;;;;;;;;;;;;;;;9.61;70.59;93732.03;5030074;28;20117;-71
2022/11/22 08:05:25;;;;;;;;;;;;;;;9.67;70.02;93727.28;5029877;28;20009;-72
2022/11/22 08:07:51;;;;;;;;;;;;;;;9.88;68.95;93723.41;5038997;28;20014;-72
2022/11/22 08:10:16;;;;;;;;;;;;;;;9.87;69.15;93731.69;5049784;28;20374;-70
2022/11/22 08:12:42;;;;;;;;;;;;;;;10.17;68.35;93726.91;5049696;28;20009;-71
2022/11/22 08:15:08;;;;;;;;;;;;;;;10.56;67.77;93737.94;5031548;28;20036;-71
2022/11/22 08:17:33;;;;;;;;;;;;;;;10.35;65.55;93746.06;5048827;28;20071;-70
2022/11/22 08:19:58;;;;;;;;;;;;;;;10.79;66.76;93743.47;5049858;28;20063;-71
2022/11/22 08:22:23;;;;;;;;;;;;;;;10.65;65.65;93749.19;5049889;28;20063;-71
2022/11/22 08:24:48;;;;;;;;;;;;;;;10.68;67.33;93756.50;5049384;28;20450;-71
2022/11/22 08:27:14;;;;;;;;;;;;;;;10.08;67.32;93758.13;5049046;28;20064;-71
2022/11/22 08:29:39;;;;;;;;;;;;;;;9.90;68.17;93766.34;5049705;28;20013;-72
2022/11/22 08:32:04;;;;;;;;;;;;;;;10.19;67.24;93764.56;5049933;28;20013;-72
2022/11/22 08:34:29;;;;;;;;;;;;;;;10.21;66.86;93754.34;5049815;28;20006;-71
2022/11/22 08:36:54;;;;;;;;;;;;;;;10.37;66.79;93768.53;5029586;28;20108;-72
2022/11/22 08:39:20;;;;;;;;;;;;;;;10.41;65.96;93772.06;5031283;28;20148;-72
2022/11/22 08:41:46;;;;;;;;;;;;;;;10.56;66.14;93778.56;5049872;28;20159;-72
2022/11/22 08:44:11;;;;;;;;;;;;;;;11.03;67.18;93779.88;5031410;28;20529;-71
2022/11/22 08:46:36;;;;;;;;;;;;;;;10.27;66.04;93782.28;5048636;28;20020;-69
2022/11/22 08:49:05;;;;;;;;;;;;;;;10.86;67.27;93791.56;5036875;28;20017;-68
2022/11/22 08:51:30;;;;;;;;;;;;;;;11.05;66.88;93785.59;5031771;28;20377;-68
2022/11/22 08:53:55;;;;;;;;;;;;;;;11.12;64.68;93791.13;5052039;28;20109;-69
2022/11/22 08:56:20;;;;;;;;;;;;;;;10.69;65.69;93795.25;5050497;28;20104;-70
2022/11/22 08:58:45;;;;;;;;;;;;;;;10.83;65.24;93794.91;5034424;28;20014;-70
2022/11/22 09:01:12;;;;;;;;;;;;;;;10.39;65.67;93795.56;5052368;28;20014;-70
2022/11/22 09:03:38;;;;;;;;;;;;;;;10.92;66.29;93811.50;5053180;28;20037;-69
2022/11/22 09:06:05;;;;;;;;;;;;;;;10.86;65.00;93812.84;5050404;28;20025;-70
2022/11/22 09:08:31;;;;;;;;;;;;;;;10.73;65.36;93808.66;5052867;28;20045;-72
2022/11/22 09:11:00;;;;;;;;;;;;;;;11.51;65.10;93810.78;5052270;28;20057;-72
2022/11/22 09:13:25;;;;;;;;;;;;;;;11.41;63.60;93812.06;5051870;28;20045;-70
2022/11/22 09:15:50;;;;;;;;;;;;;;;11.83;63.92;93805.53;5055097;28;20025;-70
2022/11/22 09:18:15;;;;;;;;;;;;;;;12.26;63.31;93811.84;5040944;28;20007;-71
2022/11/22 09:20:42;;;;;;;;;;;;;;;12.36;60.83;93816.66;5049562;28;20010;-71
2022/11/22 09:23:07;;;;;;;;;;;;;;;12.66;61.71;93819.59;5053529;28;20013;-70
2022/11/22 09:25:32;;;;;;;;;;;;;;;12.60;60.69;93819.09;5052852;28;20774;-69
2022/11/22 09:28:03;;;;;;;;;;;;;;;12.58;60.64;93828.56;5034167;28;20035;-69
2022/11/22 09:30:29;;;;;;;;;;;;;;;12.60;61.23;93831.66;5054065;28;20006;-70
2022/11/22 09:32:54;;;;;;;;;;;;;;;12.46;60.02;93835.56;5053457;28;20016;-70
2022/11/22 09:35:20;;;;;;;;;;;;;;;12.40;60.82;93834.28;5034304;28;20462;-68
2022/11/22 09:37:45;;;;;;;;;;;;;;;12.28;60.71;93842.38;5034490;28;20064;-72
2022/11/22 09:40:11;;;;;;;;;;;;;;;12.67;60.87;93847.81;5053837;28;20012;-76
2022/11/22 09:42:39;;;;;;;;;;;;;;;12.76;60.37;93843.06;5052026;28;20108;-69
2022/11/22 09:45:20;;;;;;;;;;;;;;;12.53;59.46;93848.28;5034932;28;20063;-70
2022/11/22 09:47:46;;;;;;;;;;;;;;;12.75;60.32;93839.63;5035155;28;20017;-70
2022/11/22 09:50:11;;;;;;;;;;;;;;;12.79;59.56;93844.25;5034274;28;20020;-69
2022/11/22 09:52:42;;;;;;;;;;;;;;;12.66;59.68;93840.94;5053405;28;20006;-70
2022/11/22 09:55:31;;;;;;;;;;;;;;;12.58;59.64;93847.22;5034639;28;20021;-70
2022/11/22 09:58:15;;;;;;;;;;;;;;;12.20;58.64;93851.34;5034836;28;20014;-69
2022/11/22 10:00:41;;;;;;;;;;;;;;;11.31;61.46;93855.16;5035071;28;20088;-69
2022/11/22 10:03:09;;;;;;;;;;;;;;;11.85;60.52;93848.56;5034539;28;20446;-70
2022/11/22 10:05:55;;;;;;;;;;;;;;;11.06;61.45;93853.69;5033807;28;20014;-69
2022/11/22 10:08:43;;;;;;;;;;;;;;;10.11;62.24;93856.56;5052104;28;20104;-69
2022/11/22 10:11:33;;;;;;;;;;;;;;;9.46;66.53;93860.09;5048850;28;20014;-70
2022/11/22 10:14:01;;;;;;;;;;;;;;;9.55;66.00;93852.81;5006692;28;20020;-70
2022/11/22 10:16:26;;;;;;;;;;;;;;;10.00;65.54;93859.97;5033962;28;20024;-70
2022/11/22 10:19:00;;;;;;;;;;;;;;;10.58;63.06;93850.03;5034570;28;20009;-68
2022/11/22 10:21:25;;;;;;;;;;;;;;;11.45;63.17;93844.09;5050219;28;20020;-69
2022/11/22 10:23:53;;;;;;;;;;;;;;;11.81;60.14;93843.13;5052191;28;20010;-69
2022/11/22 10:26:31;;;;;;;;;;;;;;;12.15;61.05;93848.94;5034054;28;20009;-69
2022/11/22 10:29:05;;;;;;;;;;;;;;;11.65;59.24;93845.00;5033267;28;20017;-69
2022/11/22 10:31:37;;;;;;;;;;;;;;;11.93;60.10;93848.41;5033073;28;20031;-69
2022/11/22 10:34:02;;;;;;;;;;;;;;;12.08;59.72;93844.22;5033387;28;20009;-68
2022/11/22 10:36:39;;;;;;;;;;;;;;;12.57;59.91;93843.78;5050920;28;20017;-69
2022/11/22 10:39:11;;;;;;;;;;;;;;;12.63;58.25;93841.63;5051864;28;20382;-70
2022/11/22 10:41:42;;;;;;;;;;;;;;;12.31;57.03;93847.03;5051129;28;20005;-70
2022/11/22 10:44:26;;;;;;;;;;;;;;;12.29;56.59;93838.59;5051373;28;20021;-71
2022/11/22 10:47:10;;;;;;;;;;;;;;;12.61;57.69;93831.31;5050834;28;20012;-71
2022/11/22 10:49:44;;;;;;;;;;;;;;;12.27;57.88;93826.72;5033166;28;20013;-70
2022/11/22 10:52:32;;;;;;;;;;;;;;;11.99;57.38;93832.16;5033534;28;20021;-70
2022/11/22 10:55:03;;;;;;;;;;;;;;;11.82;58.11;93819.94;5033092;28;20006;-70
2022/11/22 10:57:41;;;;;;;;;;;;;;;12.72;57.78;93823.53;5051616;28;20101;-70
2022/11/22 11:00:20;;;;;;;;;;;;;;;12.36;57.02;93822.75;5033656;28;20064;-70
2022/11/22 11:02:50;;;;;;;;;;;;;;;12.42;57.08;93825.94;5050679;28;20017;-67
2022/11/22 11:05:18;;;;;;;;;;;;;;;12.93;56.51;93820.53;5050689;28;20374;-70
2022/11/22 11:07:46;;;;;;;;;;;;;;;12.88;55.27;93831.50;5051806;28;20049;-71
2022/11/22 11:10:16;;;;;;;;;;;;;;;12.97;55.30;93838.19;5050464;28;20009;-71
2022/11/22 11:12:47;;;;;;;;;;;;;;;13.20;55.70;93842.81;5052041;28;20057;-70
2022/11/22 11:15:26;;;;;;;;;;;;;;;13.29;54.70;93843.41;5032371;28;20024;-70
2022/11/22 11:17:59;;;;;;;;;;;;;;;12.88;54.83;93840.28;5050184;28;20089;-71
2022/11/22 11:20:26;;;;;;;;;;;;;;;13.30;55.41;93838.84;5049943;28;20494;-70
2022/11/22 11:22:51;;;;;;;;;;;;;;;13.58;55.28;93835.94;5033738;28;20013;-70
2022/11/22 11:25:29;;;;;;;;;;;;;;;13.34;54.32;93848.47;5051022;28;20503;-71
2022/11/22 11:27:56;;;;;;;;;;;;;;;13.20;54.83;93840.16;5032675;28;20009;-69
2022/11/22 11:30:21;;;;;;;;;;;;;;;13.29;54.98;93840.75;5032193;28;20486;-69
2022/11/22 11:32:53;;;;;;;;;;;;;;;13.25;54.41;93839.88;5030816;28;20057;-71
2022/11/22 11:35:20;;;;;;;;;;;;;;;12.70;54.27;93839.91;5031616;28;20860;-69
2022/11/22 11:37:45;;;;;;;;;;;;;;;10.11;62.03;93839.84;5032972;28;20016;-68
2022/11/22 11:40:31;;;;;;;;;;;;;;;9.97;62.58;93837.50;5049915;28;20474;-69
2022/11/22 11:43:17;;;;;;;;;;;;;;;8.40;66.78;93841.91;5049918;28;20010;-68
2022/11/22 11:45:43;;;;;;;;;;;;;;;9.16;65.39;93835.53;5029866;28;20010;-69
2022/11/22 11:48:24;;;;;;;;;;;;;;;9.33;65.48;93843.38;5031162;28;20486;-68
2022/11/22 11:50:49;;;;;;;;;;;;;;;9.69;65.70;93842.69;5047885;28;20596;-69
2022/11/22 11:53:21;;;;;;;;;;;;;;;10.66;65.32;93833.19;5050612;28;20100;-70
2022/11/22 11:55:46;;;;;;;;;;;;;;;11.30;64.73;93832.28;5044365;28;20018;-69
2022/11/22 11:58:18;;;;;;;;;;;;;;;11.55;59.98;93832.19;5013370;28;20017;-69
2022/11/22 12:00:44;;;;;;;;;;;;;;;11.84;61.06;93823.06;5050606;28;20022;-69
2022/11/22 12:03:11;;;;;;;;;;;;;;;12.15;61.41;93832.94;5050546;28;20013;-69
2022/11/22 12:05:36;;;;;;;;;;;;;;;12.32;60.49;93837.91;5048674;28;20768;-69
2022/11/22 12:08:01;;;;;;;;;;;;;;;12.48;59.72;93835.22;5032688;28;20108;-70
2022/11/22 12:10:26;;;;;;;;;;;;;;;12.63;59.34;93830.97;5050416;28;20009;-69
2022/11/22 12:12:54;;;;;;;;;;;;;;;12.58;58.28;93824.00;5050293;28;20005;-70
2022/11/22 12:15:24;;;;;;;;;;;;;;;12.46;58.47;93822.22;5047503;28;20732;-69
2022/11/22 12:18:10;;;;;;;;;;;;;;;12.59;58.30;93830.91;5050226;28;20009;-69
2022/11/22 12:20:42;;;;;;;;;;;;;;;12.75;58.55;93828.19;5038555;28;20018;-69
2022/11/22 12:23:23;;;;;;;;;;;;;;;12.92;57.67;93830.44;5050200;28;20403;-69
2022/11/22 12:25:49;;;;;;;;;;;;;;;13.00;56.67;93823.38;5031401;28;20010;-69
2022/11/22 12:28:19;;;;;;;;;;;;;;;13.11;57.02;93823.59;5032262;28;20018;-69
2022/11/22 12:30:46;;;;;;;;;;;;;;;13.09;57.22;93815.13;5049520;28;20093;-70
2022/11/22 12:33:18;;;;;;;;;;;;;;;13.17;57.31;93819.50;5050182;28;20020;-69
2022/11/22 12:35:44;;;;;;;;;;;;;;;13.18;57.31;93813.03;5030487;28;20021;-69
2022/11/22 12:38:12;;;;;;;;;;;;;;;13.17;56.43;93814.94;5032215;28;20544;-69
2022/11/22 12:40:40;;;;;;;;;;;;;;;13.22;56.56;93812.00;5049979;28;20063;-70
2022/11/22 12:43:10;;;;;;;;;;;;;;;13.26;56.12;93812.09;5031584;28;20014;-69
2022/11/22 12:45:41;;;;;;;;;;;;;;;13.26;56.41;93796.06;5031468;28;20100;-69
2022/11/22 12:48:11;;;;;;;;;;;;;;;13.29;56.11;93794.56;5032245;28;20014;-69
2022/11/22 12:51:03;;;;;;;;;;;;;;;13.15;55.82;93797.72;5049337;28;20006;-68
2022/11/22 12:53:47;;;;;;;;;;;;;;;13.22;55.85;93789.88;5032967;28;20427;-69
2022/11/22 12:56:20;;;;;;;;;;;;;;;13.34;56.14;93786.28;5031745;28;20489;-69
2022/11/22 12:58:45;;;;;;;;;;;;;;;13.45;55.57;93789.91;5048542;28;20116;-69
2022/11/22 13:01:23;;;;;;;;;;;;;;;13.49;55.60;93786.19;5050085;28;20002;-71
2022/11/22 13:03:57;;;;;;;;;;;;;;;13.60;55.80;93786.34;5017594;28;20014;-70